Time;durP1;ratioP1;P1;durP2;ratioP2;P2;SDS_P1;SDS_P2;PMS_P1;PMS_P2;Temp;Humidity;BMP_temperature;BMP_pressure;BME280_temperature;BME280_humidity;BME280_pressure;Samples;Min_cycle;Max_cycle;Signal;HPM_P1;HPM_P2
2021/07/18 00:02:50;;;;;;;13.20;8.53;;;;;;;22.87;67.99;98669.08;262906;1096;115038;-73
2021/07/18 00:07:54;;;;;;;14.85;8.95;;;;;;;22.85;68.32;98671.95;262946;1095;114531;-72
2021/07/18 00:12:58;;;;;;;12.00;9.78;;;;;;;22.82;68.29;98672.31;263126;1095;115643;-77
2021/07/18 00:18:01;;;;;;;12.85;8.58;;;;;;;22.76;68.29;98702.05;263265;1095;114906;-77
2021/07/18 00:23:06;;;;;;;17.23;9.43;;;;;;;22.73;68.58;98688.88;263212;1096;114714;-73
2021/07/18 00:28:10;;;;;;;;;;;;;;;22.72;68.55;98663.58;263271;1095;115204;-74
2021/07/18 00:33:14;;;;;;;16.83;11.03;;;;;;;22.73;68.64;98672.59;263186;1095;101695;-76
2021/07/18 00:38:17;;;;;;;15.40;9.93;;;;;;;22.73;68.89;98695.14;263124;1094;115035;-76
2021/07/18 00:43:21;;;;;;;18.55;10.08;;;;;;;22.77;68.70;98715.45;262550;1096;114923;-76
2021/07/18 00:48:28;;;;;;;15.13;10.23;;;;;;;22.80;68.97;98720.52;262092;1094;115673;-73
2021/07/18 00:53:32;;;;;;;14.73;11.38;;;;;;;22.79;68.89;98699.84;263115;1096;115135;-73
2021/07/18 00:58:36;;;;;;;15.98;11.95;;;;;;;22.69;68.98;98731.80;263182;1095;114643;-76
2021/07/18 01:03:40;;;;;;;16.35;11.03;;;;;;;22.65;68.77;98730.45;263263;1096;115280;-76
2021/07/18 01:08:44;;;;;;;19.00;10.38;;;;;;;22.60;69.03;98717.43;263263;1095;114971;-72
2021/07/18 01:13:48;;;;;;;16.25;11.60;;;;;;;22.58;69.54;98713.20;263108;1095;114870;-75
2021/07/18 01:18:52;;;;;;;15.58;12.43;;;;;;;22.60;69.73;98719.30;262624;1095;115528;-72
2021/07/18 01:23:56;;;;;;;17.98;10.43;;;;;;;22.60;69.47;98722.02;261786;1095;115067;-74
2021/07/18 01:29:00;;;;;;;15.03;10.13;;;;;;;22.62;69.74;98714.52;262307;1095;115136;-75
2021/07/18 01:34:04;;;;;;;15.33;11.95;;;;;;;22.61;69.48;98719.11;263262;1095;115682;-75
2021/07/18 01:39:11;;;;;;;15.13;11.85;;;;;;;22.60;69.73;98725.57;263266;1095;115211;-76
2021/07/18 01:44:14;;;;;;;18.88;12.73;;;;;;;22.57;69.74;98734.06;263043;1095;114582;-75
2021/07/18 01:49:18;;;;;;;16.35;12.60;;;;;;;22.56;69.75;98726.96;263273;1096;115516;-75
2021/07/18 01:54:21;;;;;;;19.13;12.25;;;;;;;22.58;70.00;98740.33;263235;1095;115113;-76
2021/07/18 01:59:25;;;;;;;18.20;14.23;;;;;;;22.58;69.90;98741.17;263198;1095;115152;-72
2021/07/18 02:04:29;;;;;;;20.80;14.18;;;;;;;22.59;69.89;98751.02;263245;1095;115418;-72
2021/07/18 02:09:39;;;;;;;20.83;12.50;;;;;;;22.55;70.40;98736.09;262603;1096;114916;-77
2021/07/18 02:14:44;;;;;;;19.40;12.63;;;;;;;22.56;70.00;98742.39;263240;1095;115090;-76
2021/07/18 02:19:48;;;;;;;18.17;14.07;;;;;;;22.57;70.12;98746.78;263142;1096;115054;-74
2021/07/18 02:24:52;;;;;;;26.55;15.00;;;;;;;22.59;70.21;98736.61;263236;1095;115539;-79
2021/07/18 02:29:55;;;;;;;21.00;12.78;;;;;;;22.59;70.04;98725.77;262985;1095;114648;-73
2021/07/18 02:34:59;;;;;;;16.08;13.00;;;;;;;22.58;70.07;98724.89;263229;1096;115334;-72
2021/07/18 02:40:04;;;;;;;21.28;15.03;;;;;;;22.61;70.03;98745.40;263254;1095;115603;-73
2021/07/18 02:45:10;;;;;;;20.20;15.03;;;;;;;22.62;70.53;98738.94;261437;1095;114826;-74
2021/07/18 02:50:16;;;;;;;19.33;13.13;;;;;;;22.61;70.32;98731.84;262533;1096;115165;-74
2021/07/18 02:55:21;;;;;;;23.08;12.75;;;;;;;22.58;70.12;98735.74;263014;1095;139331;-71
2021/07/18 03:00:25;;;;;;;;;;;;;;;22.61;70.49;98746.23;262512;1095;114881;-73
2021/07/18 03:05:29;;;;;;;20.20;14.73;;;;;;;22.64;70.54;98723.34;262438;1095;103029;-73
2021/07/18 03:10:33;;;;;;;20.35;14.05;;;;;;;22.60;70.44;98714.72;263299;1095;115832;-76
2021/07/18 03:15:36;;;;;;;21.77;14.00;;;;;;;22.59;70.75;98720.34;263221;1096;115325;-76
2021/07/18 03:20:40;;;;;;;21.15;15.00;;;;;;;22.56;70.49;98720.70;263063;1096;115190;-75
2021/07/18 03:25:44;;;;;;;20.40;15.95;;;;;;;22.56;70.94;98721.53;263256;1095;115161;-72
2021/07/18 03:30:47;;;;;;;20.33;14.40;;;;;;;22.58;70.63;98726.77;263259;1094;116418;-72
2021/07/18 03:35:52;;;;;;;22.65;14.63;;;;;;;22.62;70.91;98725.38;263216;1095;115661;-75
2021/07/18 03:40:56;;;;;;;18.97;15.03;;;;;;;22.70;70.92;98722.63;263247;1096;115156;-73
2021/07/18 03:46:00;;;;;;;20.75;16.63;;;;;;;22.76;71.01;98708.34;261005;1096;115498;-73
2021/07/18 03:51:04;;;;;;;20.40;14.98;;;;;;;22.84;71.00;98694.70;261878;1096;115116;-74
2021/07/18 03:56:09;;;;;;;18.85;14.05;;;;;;;22.86;70.72;98687.23;261085;1094;114587;-72
2021/07/18 04:01:13;;;;;;;23.10;16.30;;;;;;;22.91;70.82;98702.95;261120;1096;115672;-72
2021/07/18 04:06:19;;;;;;;23.30;16.67;;;;;;;22.93;70.65;98706.38;261271;1096;116289;-74
2021/07/18 04:11:22;;;;;;;;;;;;;;;22.87;70.41;98710.63;263149;1095;115573;-77
2021/07/18 04:16:26;;;;;;;21.23;15.05;;;;;;;22.83;70.83;98716.61;263337;1095;101577;-74
2021/07/18 04:21:30;;;;;;;22.45;13.70;;;;;;;22.85;70.97;98723.52;263152;1094;115719;-73
2021/07/18 04:26:34;;;;;;;24.05;13.78;;;;;;;22.94;70.73;98723.50;262207;1096;114890;-73
2021/07/18 04:31:37;;;;;;;20.63;15.15;;;;;;;23.01;70.76;98729.88;263107;1096;116233;-77
2021/07/18 04:36:41;;;;;;;22.05;15.90;;;;;;;23.06;70.71;98722.89;262073;1095;114728;-73
2021/07/18 04:41:45;;;;;;;19.75;15.30;;;;;;;23.08;70.49;98741.70;263128;1096;114929;-77
2021/07/18 04:46:50;;;;;;;18.43;14.48;;;;;;;23.08;70.73;98742.54;263081;1095;115145;-76
2021/07/18 04:51:54;;;;;;;22.87;16.33;;;;;;;23.13;70.55;98731.12;263277;1095;115078;-76
2021/07/18 04:56:57;;;;;;;20.88;16.85;;;;;;;23.13;70.66;98728.41;262801;1095;115830;-75
2021/07/18 05:02:01;;;;;;;20.85;15.10;;;;;;;23.13;70.46;98741.98;262103;1095;115471;-74
2021/07/18 05:07:07;;;;;;;18.93;14.68;;;;;;;23.12;70.34;98740.30;263280;1095;115325;-75
2021/07/18 05:12:12;;;;;;;21.60;16.13;;;;;;;23.11;70.54;98738.63;263084;1095;118400;-77
2021/07/18 05:17:16;;;;;;;23.28;16.38;;;;;;;23.09;70.44;98737.95;262567;1095;114978;-72
2021/07/18 05:22:20;;;;;;;20.18;16.00;;;;;;;23.03;70.12;98738.67;263207;1095;115122;-76
2021/07/18 05:27:23;;;;;;;27.05;15.35;;;;;;;22.96;70.39;98744.02;263277;1096;115015;-72
2021/07/18 05:32:27;;;;;;;18.63;13.93;;;;;;;23.01;70.11;98748.89;263154;1095;114596;-76
2021/07/18 05:37:31;;;;;;;19.98;16.23;;;;;;;23.07;70.43;98759.02;263240;1095;114753;-74
2021/07/18 05:42:36;;;;;;;22.38;16.50;;;;;;;23.10;70.47;98758.66;263280;1095;115461;-77
2021/07/18 05:47:41;;;;;;;20.80;15.10;;;;;;;23.12;70.51;98765.57;262978;1095;115141;-72
2021/07/18 05:52:44;;;;;;;;;;;;;;;23.16;70.60;98776.91;262015;1096;114645;-75
2021/07/18 05:57:48;;;;;;;19.63;15.23;;;;;;;23.18;70.35;98776.75;262908;1095;101211;-72
2021/07/18 06:02:52;;;;;;;22.48;15.05;;;;;;;23.17;70.95;98773.19;262298;1095;116662;-73
2021/07/18 06:07:55;;;;;;;21.70;15.85;;;;;;;23.18;70.47;98774.88;263211;1094;115231;-75
2021/07/18 06:12:59;;;;;;;21.60;14.38;;;;;;;23.28;70.95;98764.60;263296;1096;115229;-73
2021/07/18 06:18:03;;;;;;;16.48;14.13;;;;;;;23.43;70.72;98763.78;263158;1096;114891;-74
2021/07/18 06:23:07;;;;;;;;;;;;;;;23.59;70.93;98771.78;263015;1095;115014;-76
2021/07/18 06:28:27;;;;;;;18.13;15.20;;;;;;;23.63;70.87;98778.53;263348;1095;101517;-73
2021/07/18 06:33:31;;;;;;;14.55;11.55;;;;;;;23.72;70.58;98774.73;263245;1096;114912;-74
2021/07/18 06:38:36;;;;;;;16.18;12.23;;;;;;;23.87;70.76;98773.91;263254;1095;115340;-72
2021/07/18 06:43:39;;;;;;;19.73;10.80;;;;;;;24.03;71.03;98771.00;262254;1095;115316;-73
2021/07/18 06:49:01;;;;;;;14.67;10.20;;;;;;;24.16;70.40;98773.91;263211;1096;115126;-73
2021/07/18 06:54:05;;;;;;;15.60;10.85;;;;;;;24.26;70.41;98776.34;263118;1095;114640;-73
2021/07/18 06:59:08;;;;;;;16.75;12.85;;;;;;;24.35;70.01;98791.50;263150;1095;114770;-75
2021/07/18 07:04:12;;;;;;;13.53;10.70;;;;;;;24.46;69.98;98795.67;262858;1095;114836;-72
2021/07/18 07:09:16;;;;;;;16.68;11.30;;;;;;;24.57;69.87;98795.17;262935;1096;115245;-74
2021/07/18 07:14:19;;;;;;;14.13;11.50;;;;;;;24.66;69.70;98794.03;262037;1096;114956;-73
2021/07/18 07:19:23;;;;;;;19.70;12.08;;;;;;;24.72;69.71;98790.52;262565;1095;115165;-74
2021/07/18 07:24:27;;;;;;;19.20;11.45;;;;;;;24.79;69.57;98785.98;263229;1095;115052;-73
2021/07/18 07:29:31;;;;;;;15.85;10.78;;;;;;;24.86;69.44;98774.33;263189;1096;114690;-73
2021/07/18 07:34:35;;;;;;;18.88;11.75;;;;;;;24.93;69.20;98780.69;263242;1095;115506;-77
2021/07/18 07:39:40;;;;;;;17.23;13.03;;;;;;;24.99;69.25;98785.36;263181;1094;115019;-72
2021/07/18 07:44:43;;;;;;;11.97;10.50;;;;;;;25.09;69.12;98790.49;263184;1096;115162;-70
2021/07/18 07:49:47;;;;;;;16.13;12.88;;;;;;;25.15;68.69;98785.14;262983;1096;115198;-73
2021/07/18 07:54:51;;;;;;;18.50;12.78;;;;;;;25.17;68.36;98787.66;263162;1095;114691;-73
2021/07/18 07:59:55;;;;;;;14.80;11.65;;;;;;;25.18;68.43;98794.81;262801;1096;115541;-72
2021/07/18 08:04:59;;;;;;;21.50;11.70;;;;;;;25.24;68.28;98794.88;263196;1096;114784;-73
2021/07/18 08:10:06;;;;;;;23.50;12.75;;;;;;;25.30;68.17;98789.67;263188;1095;115167;-75
2021/07/18 08:15:12;;;;;;;16.90;12.87;;;;;;;25.34;68.01;98778.20;263130;1095;116176;-74
2021/07/18 08:20:19;;;;;;;15.68;12.20;;;;;;;25.39;67.83;98780.33;262926;1096;115298;-72
2021/07/18 08:25:25;;;;;;;15.07;12.63;;;;;;;25.40;67.71;98780.12;262923;1095;116285;-73
2021/07/18 08:30:28;;;;;;;14.83;12.43;;;;;;;25.46;67.75;98787.52;263167;1095;114752;-73
2021/07/18 08:35:32;;;;;;;15.70;12.88;;;;;;;25.52;67.98;98785.89;263252;1096;115308;-75
2021/07/18 08:40:37;;;;;;;14.75;10.90;;;;;;;25.54;67.69;98786.52;263005;1095;115165;-74
2021/07/18 08:45:41;;;;;;;15.17;9.57;;;;;;;25.49;67.41;98798.02;262914;1095;115416;-74
2021/07/18 08:50:48;;;;;;;16.08;9.68;;;;;;;25.47;67.23;98801.97;262527;1095;115178;-72
2021/07/18 08:55:53;;;;;;;13.20;10.03;;;;;;;25.45;67.32;98806.80;263032;1096;115121;-74
2021/07/18 09:00:57;;;;;;;;;;;;;;;25.53;67.13;98809.37;262974;1096;114715;-76
2021/07/18 09:06:10;;;;;;;11.93;10.00;;;;;;;25.58;67.59;98806.08;262869;1095;101388;-74
2021/07/18 09:11:23;;;;;;;13.50;10.27;;;;;;;25.56;66.76;98817.16;261422;1095;115685;-75
2021/07/18 09:16:34;;;;;;;13.37;9.83;;;;;;;25.55;66.72;98810.03;263207;1095;115399;-71
2021/07/18 09:21:38;;;;;;;13.00;10.00;;;;;;;25.55;66.71;98806.47;263019;1096;115504;-75
2021/07/18 09:26:42;;;;;;;15.35;9.93;;;;;;;25.59;66.38;98797.69;263111;1096;114550;-75
2021/07/18 09:31:46;;;;;;;17.17;11.40;;;;;;;25.68;66.02;98807.41;263053;1095;115124;-75
2021/07/18 09:36:50;;;;;;;14.25;10.98;;;;;;;25.80;66.79;98809.61;262676;1095;116195;-74
2021/07/18 09:41:57;;;;;;;15.45;9.48;;;;;;;25.88;66.28;98810.32;260400;1095;114929;-75
2021/07/18 09:47:02;;;;;;;13.63;9.40;;;;;;;25.83;66.26;98820.13;263302;1095;114909;-71
2021/07/18 09:52:17;;;;;;;;;;;;;;;25.88;66.00;98823.08;263243;1096;114787;-72
2021/07/18 09:57:29;;;;;;;12.50;8.83;;;;;;;25.85;65.91;98818.89;262677;1096;101745;-72
2021/07/18 10:02:33;;;;;;;11.77;8.73;;;;;;;25.84;65.15;98814.46;261957;1095;116090;-74
2021/07/18 10:07:37;;;;;;;13.33;9.55;;;;;;;25.90;66.01;98810.95;262070;1096;114692;-73
2021/07/18 10:12:42;;;;;;;;;;;;;;;26.03;65.63;98806.63;261363;1096;114543;-71
2021/07/18 10:17:47;;;;;;;12.03;10.20;;;;;;;26.05;65.35;98793.62;262981;1095;101116;-72
2021/07/18 10:22:55;;;;;;;14.90;9.53;;;;;;;26.01;65.49;98790.45;263213;1095;115269;-73
2021/07/18 10:27:59;;;;;;;15.70;10.70;;;;;;;26.06;65.39;98792.59;263207;1096;115010;-73
2021/07/18 10:33:05;;;;;;;13.27;10.70;;;;;;;26.11;65.52;98796.39;261882;1096;114848;-74
2021/07/18 10:38:19;;;;;;;18.70;11.90;;;;;;;26.02;65.16;98800.34;263321;1096;115018;-75
2021/07/18 10:43:47;;;;;;;18.23;12.33;;;;;;;25.97;65.11;98793.79;263113;1095;115182;-75
2021/07/18 10:48:52;;;;;;;16.63;10.70;;;;;;;25.89;65.03;98790.18;261769;1095;114952;-74
2021/07/18 10:54:14;;;;;;;16.10;13.05;;;;;;;25.88;65.08;98787.64;263007;1095;114907;-75
2021/07/18 10:59:36;;;;;;;18.70;13.57;;;;;;;25.82;65.02;98802.93;263033;1095;114977;-74
2021/07/18 11:04:51;;;;;;;18.57;13.63;;;;;;;25.82;65.46;98802.09;263046;1096;115242;-74
2021/07/18 11:10:23;;;;;;;18.33;14.07;;;;;;;25.83;65.15;98790.97;262944;1095;114812;-74
2021/07/18 11:15:39;;;;;;;16.60;13.80;;;;;;;25.82;65.17;98785.73;263080;1096;115000;-73
2021/07/18 11:20:43;;;;;;;18.30;14.77;;;;;;;25.80;65.16;98788.64;263212;1095;114785;-74
2021/07/18 11:25:51;;;;;;;23.33;14.70;;;;;;;25.85;65.01;98785.30;263090;1096;115346;-74
2021/07/18 11:31:14;;;;;;;20.43;15.00;;;;;;;25.82;65.13;98792.02;262919;1096;115077;-75
2021/07/18 11:36:23;;;;;;;20.50;15.73;;;;;;;25.77;65.02;98788.16;261127;1095;114805;-80
2021/07/18 11:41:30;;;;;;;21.10;14.73;;;;;;;25.70;64.94;98793.56;263277;1095;115158;-71
2021/07/18 11:46:40;;;;;;;17.80;13.50;;;;;;;25.68;65.42;98787.49;263106;1096;115209;-71
2021/07/18 11:51:47;;;;;;;21.10;14.33;;;;;;;25.72;65.20;98778.70;260700;1096;115167;-74
2021/07/18 11:56:52;;;;;;;20.03;14.63;;;;;;;25.80;65.61;98783.19;263012;1095;115470;-71
2021/07/18 12:01:56;;;;;;;18.67;15.07;;;;;;;25.90;65.84;98775.49;262866;1096;115239;-74
2021/07/18 12:07:07;;;;;;;17.73;14.30;;;;;;;26.00;65.01;98757.94;262722;1095;115234;-73
2021/07/18 12:12:15;;;;;;;21.27;14.43;;;;;;;26.11;64.79;98757.36;263188;1096;115161;-70
2021/07/18 12:17:19;;;;;;;21.73;14.57;;;;;;;26.18;65.07;98758.23;262807;1096;115498;-77
2021/07/18 12:22:24;;;;;;;18.58;12.53;;;;;;;26.27;65.35;98737.09;263076;1096;115364;-77
2021/07/18 12:27:28;;;;;;;16.00;11.40;;;;;;;26.36;64.63;98733.14;262740;1095;115502;-76
2021/07/18 12:32:36;;;;;;;16.57;11.17;;;;;;;26.43;64.87;98725.82;263029;1096;115554;-76
2021/07/18 12:37:42;;;;;;;15.63;10.87;;;;;;;26.49;64.32;98719.55;263099;1096;115046;-77
2021/07/18 12:42:53;;;;;;;17.87;10.70;;;;;;;26.54;63.98;98724.41;262436;1096;115498;-77
2021/07/18 12:48:02;;;;;;;14.17;10.77;;;;;;;26.52;63.88;98726.49;262757;1096;115339;-73
2021/07/18 12:53:06;;;;;;;16.77;11.70;;;;;;;26.48;63.99;98742.44;262398;1096;115160;-77
2021/07/18 12:58:27;;;;;;;12.57;11.23;;;;;;;26.45;63.49;98742.81;262900;1095;115459;-73
2021/07/18 13:03:34;;;;;;;17.45;15.08;;;;;;;26.45;63.33;98739.25;262836;1096;115327;-75
2021/07/18 13:08:48;;;;;;;22.50;16.30;;;;;;;26.41;64.12;98739.66;262626;1095;115318;-72
2021/07/18 13:13:52;;;;;;;20.93;17.20;;;;;;;26.37;63.57;98730.20;262744;1095;115641;-75
2021/07/18 13:19:07;;;;;;;23.73;18.27;;;;;;;26.38;64.12;98725.58;262855;1096;115440;-73
2021/07/18 13:24:10;;;;;;;;;;;;;;;26.45;63.78;98726.44;262222;1095;115398;-73
2021/07/18 13:29:18;;;;;;;22.23;19.23;;;;;;;26.55;64.01;98720.63;262315;1095;101780;-72
2021/07/18 13:34:22;;;;;;;23.47;21.07;;;;;;;26.61;64.46;98715.19;262742;1096;115524;-76
2021/07/18 13:39:28;;;;;;;28.25;24.48;;;;;;;26.72;64.14;98716.47;262997;1095;115051;-75
2021/07/18 13:44:32;;;;;;;29.67;25.03;;;;;;;26.88;64.25;98712.52;262922;1095;115199;-72
2021/07/18 13:49:36;;;;;;;25.50;22.80;;;;;;;27.06;64.04;98692.77;262828;1096;115074;-75
2021/07/18 13:54:40;;;;;;;27.90;22.80;;;;;;;27.16;63.52;98698.69;262396;1095;115072;-74
2021/07/18 13:59:43;;;;;;;26.15;23.40;;;;;;;27.19;62.74;98681.04;263039;1095;115734;-77
2021/07/18 14:04:47;;;;;;;20.80;18.68;;;;;;;27.08;62.72;98677.86;262965;1095;115235;-73
2021/07/18 14:09:50;;;;;;;20.78;18.45;;;;;;;27.12;62.73;98684.61;261950;1095;115278;-76
2021/07/18 14:14:54;;;;;;;28.30;21.60;;;;;;;27.20;62.99;98688.17;263266;1095;114995;-75
2021/07/18 14:19:58;;;;;;;25.18;20.13;;;;;;;27.18;62.35;98685.66;262462;1095;115060;-73
2021/07/18 14:25:06;;;;;;;22.80;20.43;;;;;;;27.06;62.23;98685.41;263204;1095;114977;-73
2021/07/18 14:30:16;;;;;;;15.93;12.93;;;;;;;26.93;61.56;98690.86;263166;1096;115084;-73
2021/07/18 14:35:21;;;;;;;15.13;13.13;;;;;;;26.86;61.58;98698.21;262730;1096;115455;-76
2021/07/18 14:40:28;;;;;;;14.95;11.65;;;;;;;26.76;61.95;98692.31;262568;1096;115625;-72
2021/07/18 14:45:32;;;;;;;15.30;11.27;;;;;;;26.69;61.72;98696.93;262847;1096;115392;-75
2021/07/18 14:50:37;;;;;;;10.67;9.57;;;;;;;26.65;62.19;98708.26;262446;1094;115391;-73
2021/07/18 14:55:41;;;;;;;13.20;9.73;;;;;;;26.69;61.86;98713.31;262290;1095;115217;-73
2021/07/18 15:00:45;;;;;;;14.75;11.05;;;;;;;26.72;61.74;98705.55;261122;1095;114775;-71
2021/07/18 15:05:48;;;;;;;17.98;13.80;;;;;;;26.76;61.90;98705.97;262702;1096;115246;-70
2021/07/18 15:10:55;;;;;;;12.93;10.98;;;;;;;26.72;61.77;98711.00;263103;1096;115347;-74
2021/07/18 15:15:59;;;;;;;17.25;14.10;;;;;;;26.69;61.72;98726.96;263088;1095;116680;-73
2021/07/18 15:21:04;;;;;;;17.97;15.30;;;;;;;26.61;61.61;98720.65;261580;1095;175134;-72
2021/07/18 15:26:08;;;;;;;20.20;15.30;;;;;;;26.51;62.34;98711.17;262938;1095;115260;-72
2021/07/18 15:31:12;;;;;;;14.40;12.85;;;;;;;26.40;61.69;98701.67;263099;1095;117171;-76
2021/07/18 15:36:15;;;;;;;18.93;12.25;;;;;;;26.33;62.11;98706.27;262972;1096;115199;-74
2021/07/18 15:41:19;;;;;;;21.90;13.28;;;;;;;26.30;62.23;98723.88;262915;1095;115286;-72
2021/07/18 15:46:23;;;;;;;27.40;14.45;;;;;;;26.30;62.36;98740.25;263240;1096;114716;-73
2021/07/18 15:51:27;;;;;;;20.30;14.00;;;;;;;26.26;62.40;98746.33;262067;1095;115447;-72
2021/07/18 15:56:33;;;;;;;16.93;13.93;;;;;;;26.17;62.64;98757.39;262630;1095;115266;-73
2021/07/18 16:01:37;;;;;;;20.80;14.03;;;;;;;26.07;62.81;98754.20;263158;1095;115327;-73
2021/07/18 16:06:41;;;;;;;20.83;18.03;;;;;;;26.07;62.62;98729.64;263216;1096;115037;-73
2021/07/18 16:11:45;;;;;;;23.25;17.05;;;;;;;26.08;62.82;98725.03;263030;1095;116473;-72
2021/07/18 16:16:49;;;;;;;168.90;138.13;;;;;;;26.07;63.09;98721.47;263231;1096;114980;-75
2021/07/18 16:21:56;;;;;;;26.97;24.07;;;;;;;26.06;63.23;98708.05;263198;1095;116051;-70
2021/07/18 16:27:00;;;;;;;25.20;20.03;;;;;;;25.89;62.59;98722.02;261306;1095;115208;-72
2021/07/18 16:32:06;;;;;;;24.80;19.60;;;;;;;25.82;62.39;98725.75;262404;1096;114959;-71
2021/07/18 16:37:10;;;;;;;22.70;17.97;;;;;;;25.83;62.73;98741.05;261534;1095;115084;-70
2021/07/18 16:42:15;;;;;;;24.10;21.60;;;;;;;25.84;62.45;98740.00;261226;1096;114755;-72
2021/07/18 16:47:19;;;;;;;23.23;20.93;;;;;;;25.84;62.81;98740.00;261986;1095;115137;-71
2021/07/18 16:52:24;;;;;;;123.50;105.17;;;;;;;25.86;62.75;98740.66;261769;1096;115042;-70
2021/07/18 16:57:29;;;;;;;68.43;60.27;;;;;;;25.90;63.06;98731.03;261156;1095;115005;-71
2021/07/18 17:02:34;;;;;;;35.35;31.13;;;;;;;25.88;62.77;98735.83;262467;1096;115439;-71
2021/07/18 17:07:38;;;;;;;26.95;24.05;;;;;;;25.85;62.65;98752.59;262155;1095;115481;-70
2021/07/18 17:12:41;;;;;;;28.50;24.38;;;;;;;25.81;62.87;98752.15;262864;1096;114934;-70
2021/07/18 17:17:45;;;;;;;21.77;19.53;;;;;;;25.78;62.71;98758.00;262436;1096;114989;-70
2021/07/18 17:22:49;;;;;;;22.50;18.83;;;;;;;25.79;62.42;98746.04;262588;1095;115558;-69
2021/07/18 17:27:56;;;;;;;23.90;21.30;;;;;;;25.81;62.53;98745.86;262553;1095;115213;-68
2021/07/18 17:33:01;;;;;;;20.97;18.77;;;;;;;25.81;62.48;98740.41;263087;1096;115180;-70
2021/07/18 17:38:05;;;;;;;22.43;19.70;;;;;;;25.83;62.20;98735.61;263182;1095;115096;-71
2021/07/18 17:43:09;;;;;;;23.35;20.43;;;;;;;25.83;62.02;98738.33;263172;1095;115842;-69
2021/07/18 17:48:12;;;;;;;21.70;19.43;;;;;;;25.84;62.32;98745.45;262613;1096;115752;-69
2021/07/18 17:53:16;;;;;;;22.43;18.38;;;;;;;25.81;61.88;98738.52;262712;1096;115605;-71
2021/07/18 17:58:21;;;;;;;22.95;18.93;;;;;;;25.80;61.94;98728.66;262823;1095;115367;-71
2021/07/18 18:03:33;;;;;;;191.47;150.93;;;;;;;25.81;61.71;98733.06;261397;1096;114793;-70
2021/07/18 18:08:41;;;;;;;53.95;43.70;;;;;;;25.82;61.97;98742.95;260757;1096;115653;-69
2021/07/18 18:13:47;;;;;;;19.20;17.30;;;;;;;25.82;61.94;98728.48;261031;1096;115378;-70
2021/07/18 18:18:55;;;;;;;19.47;16.77;;;;;;;25.82;61.84;98731.20;260666;1094;114878;-69
2021/07/18 18:24:00;;;;;;;20.93;18.17;;;;;;;25.79;61.74;98723.39;260678;1095;115449;-69
2021/07/18 18:29:16;;;;;;;19.40;15.30;;;;;;;25.74;61.80;98721.25;260974;1095;114904;-69
2021/07/18 18:34:25;;;;;;;18.13;14.93;;;;;;;25.67;62.30;98715.75;260953;1095;114845;-70
2021/07/18 18:39:33;;;;;;;18.70;14.23;;;;;;;25.64;62.50;98723.48;260909;1095;115647;-69
2021/07/18 18:44:37;;;;;;;21.98;15.40;;;;;;;25.62;62.22;98718.25;263098;1096;115185;-70
2021/07/18 18:49:40;;;;;;;21.28;15.93;;;;;;;25.64;62.82;98718.88;262740;1096;115522;-71
2021/07/18 18:54:44;;;;;;;18.03;14.63;;;;;;;25.62;62.63;98728.31;263020;1095;115594;-71
2021/07/18 18:59:48;;;;;;;18.93;15.15;;;;;;;25.58;62.84;98741.50;262902;1095;114929;-70
2021/07/18 19:04:52;;;;;;;19.40;13.83;;;;;;;25.51;62.48;98743.34;262990;1096;115177;-71
2021/07/18 19:09:55;;;;;;;152.40;113.08;;;;;;;25.37;62.23;98745.09;263081;1095;115279;-71
2021/07/18 19:14:59;;;;;;;20.90;15.40;;;;;;;25.30;62.59;98740.63;263149;1095;118909;-72
2021/07/18 19:20:03;;;;;;;20.10;12.15;;;;;;;25.23;62.63;98752.31;261991;1095;115754;-71
2021/07/18 19:25:07;;;;;;;;;;;;;;;25.13;62.63;98757.25;262973;1095;115162;-68
2021/07/18 19:30:13;;;;;;;19.20;15.17;;;;;;;25.00;63.09;98759.84;263043;1095;102192;-70
2021/07/18 19:35:18;;;;;;;16.23;13.93;;;;;;;24.90;63.19;98762.88;262008;1096;115007;-68
2021/07/18 19:40:22;;;;;;;14.53;13.00;;;;;;;24.79;63.28;98768.81;262076;1095;114968;-70
2021/07/18 19:45:26;;;;;;;14.75;12.20;;;;;;;24.63;62.84;98772.64;262933;1095;115485;-67
2021/07/18 19:50:29;;;;;;;17.17;12.00;;;;;;;24.49;62.99;98768.05;262712;1096;115343;-70
2021/07/18 19:55:33;;;;;;;14.45;10.10;;;;;;;24.36;62.70;98763.28;262673;1095;114763;-69
2021/07/18 20:00:37;;;;;;;13.15;10.65;;;;;;;24.23;62.70;98763.95;262846;1095;115399;-70
2021/07/18 20:05:41;;;;;;;16.15;12.68;;;;;;;24.17;63.23;98753.83;262831;1096;114963;-69
2021/07/18 20:10:44;;;;;;;16.23;12.58;;;;;;;24.15;63.38;98753.19;263066;1095;116066;-68
2021/07/18 20:15:48;;;;;;;16.38;12.63;;;;;;;24.11;63.44;98754.58;262920;1095;115230;-68
2021/07/18 20:20:51;;;;;;;15.70;12.80;;;;;;;24.07;63.61;98755.99;261777;1095;114666;-67
2021/07/18 20:26:16;;;;;;;15.17;13.43;;;;;;;24.03;63.81;98754.69;260860;1095;115097;-71
2021/07/18 20:31:24;;;;;;;14.70;11.40;;;;;;;24.01;63.89;98745.87;260810;1096;114812;-69
2021/07/18 20:36:33;;;;;;;19.83;11.63;;;;;;;24.00;64.32;98755.90;260845;1096;115780;-70
2021/07/18 20:41:39;;;;;;;17.93;13.67;;;;;;;24.04;64.71;98753.64;260740;1095;115669;-70
2021/07/18 20:46:47;;;;;;;19.83;13.80;;;;;;;24.00;64.55;98755.06;260837;1096;115450;-69
2021/07/18 20:51:53;;;;;;;18.83;14.03;;;;;;;23.98;64.90;98751.67;260699;1095;114937;-69
2021/07/18 20:57:03;;;;;;;20.13;14.97;;;;;;;23.95;64.90;98754.80;260855;1095;115265;-70
2021/07/18 21:02:10;;;;;;;20.03;12.00;;;;;;;23.91;65.16;98745.31;260885;1095;114861;-71
2021/07/18 21:07:20;;;;;;;17.43;11.63;;;;;;;23.92;65.42;98756.01;260885;1094;114995;-70
2021/07/18 21:12:27;;;;;;;18.30;13.30;;;;;;;23.93;65.50;98751.41;260899;1095;114952;-68
2021/07/18 21:17:33;;;;;;;17.10;14.37;;;;;;;23.94;65.67;98753.93;260926;1094;115939;-68
2021/07/18 21:22:39;;;;;;;20.63;13.63;;;;;;;23.90;65.59;98744.47;261179;1094;115503;-68
2021/07/18 21:27:56;;;;;;;16.13;12.43;;;;;;;23.89;65.57;98753.66;260908;1096;114924;-68
2021/07/18 21:33:11;;;;;;;17.67;11.93;;;;;;;23.87;65.34;98744.00;261032;1095;116095;-68
2021/07/18 21:38:21;;;;;;;18.55;11.85;;;;;;;23.87;65.31;98747.56;261234;1095;115008;-68
2021/07/18 21:43:27;;;;;;;15.87;11.37;;;;;;;23.88;65.26;98761.98;261031;1095;115771;-68
2021/07/18 21:48:36;;;;;;;15.13;11.83;;;;;;;23.84;65.25;98775.98;261194;1096;114614;-69
2021/07/18 21:53:49;;;;;;;12.97;10.20;;;;;;;23.80;65.04;98785.52;261257;1096;115038;-69
2021/07/18 21:58:59;;;;;;;11.10;9.97;;;;;;;23.74;64.66;98788.13;262001;1096;115693;-68
2021/07/18 22:04:04;;;;;;;14.67;8.73;;;;;;;23.69;65.00;98788.69;262197;1095;115872;-68
2021/07/18 22:09:15;;;;;;;13.13;10.07;;;;;;;23.69;64.92;98787.86;260985;1095;114721;-69
2021/07/18 22:14:27;;;;;;;14.73;8.97;;;;;;;23.68;64.99;98797.89;261062;1096;114853;-67
2021/07/18 22:19:36;;;;;;;12.33;8.83;;;;;;;23.65;64.69;98803.66;261364;1096;113524;-73
2021/07/18 22:24:47;;;;;;;14.55;9.33;;;;;;;23.64;64.25;98807.41;260887;1096;115006;-69
2021/07/18 22:30:00;;;;;;;13.37;8.97;;;;;;;23.60;63.92;98811.50;261089;1096;114638;-71
2021/07/18 22:35:13;;;;;;;9.87;8.43;;;;;;;23.55;64.32;98811.22;260939;1096;114918;-68
2021/07/18 22:40:25;;;;;;;;;;;;;;;23.50;64.19;98809.03;260961;1096;114974;-69
2021/07/18 22:45:37;;;;;;;9.23;8.23;;;;;;;23.43;63.90;98799.94;261110;1095;101788;-70
2021/07/18 22:50:43;;;;;;;10.20;7.63;;;;;;;23.40;63.88;98811.16;261093;1095;114721;-69
2021/07/18 22:55:51;;;;;;;10.67;7.70;;;;;;;23.41;63.96;98812.88;260807;1095;114457;-71
2021/07/18 23:01:07;;;;;;;14.00;8.43;;;;;;;23.46;64.16;98817.75;261000;1095;114574;-68